tititudorancea.com
Station Historical Data
Daily Summary for April 16, 2018 Units:  Metric    English   Both
« Previous Day
Next Day »
Daily Weekly Monthly Yearly Custom
  High: Low: Average:
Temperature: -17.8 °C 11.1 °C 14.7 °C
Dew Point: -17.8 °C 5.6 °C 11 °C
Humidity: Humidity % 68 % 79 %
Wind Speed: 0 km/h 0.2 km/h 9.8 km/h
Wind Gust: 0 km/h - -
Wind:- - WSW
Pressure: 0 hPa 1008.4 hPa -
Precipitation: 0 mm    
Historical Graphs
 
 
Ararat weather Find more about Weather in Ararat, AU


 



 


Tabular Data for April 16, 2018
Time Temperature Dew Point Pressure Wind Wind Speed Wind Gust Humidity Rainfall Rate (Hourly)
-17.8 °C -17.8 °C 0 hPa Calm     Humidity % 0 mm
00:02 14.3 °C 11.7 °C 1008.7 hPa North 7.7 km/h 9.7 km/h 84 % 0 mm
00:07 14.3 °C 11.7 °C 1008.7 hPa North 2.7 km/h 5.6 km/h 84 % 0 mm
00:12 14.3 °C 11.6 °C 1008.7 hPa North 0.6 km/h 5.6 km/h 84 % 0 mm
00:17 14.2 °C 11.5 °C 1008.7 hPa NW 1.3 km/h 5.6 km/h 84 % 0 mm
00:22 14.1 °C 11.6 °C 1008.7 hPa NW 4 km/h 6.4 km/h 85 % 0 mm
00:27 14 °C 11.5 °C 1008.7 hPa North 2.9 km/h 5.6 km/h 85 % 0 mm
00:32 13.9 °C 11.4 °C 1008.4 hPa NW 3.2 km/h 7.4 km/h 85 % 0 mm
00:37 13.9 °C 11.6 °C 1008.7 hPa North 3.1 km/h 4.8 km/h 86 % 0 mm
00:42 13.9 °C 11.6 °C 1008.7 hPa NW 5.5 km/h 11.1 km/h 86 % 0 mm
00:47 13.9 °C 11.6 °C 1008.4 hPa NW 7.9 km/h 9.3 km/h 86 % 0 mm
00:52 13.9 °C 11.7 °C 1008.4 hPa NW 1.6 km/h 5.6 km/h 86 % 0 mm
00:57 13.9 °C 11.6 °C 1008.4 hPa NW 4 km/h 9.3 km/h 86 % 0 mm
01:02 13.9 °C 11.6 °C 1008.4 hPa North 5 km/h 7.4 km/h 86 % 0 mm
01:07 13.9 °C 11.7 °C 1008.4 hPa North 4.8 km/h 7.4 km/h 86 % 0 mm
01:12 13.9 °C 11.7 °C 1008.4 hPa NW 3.7 km/h 7.4 km/h 86 % 0 mm
01:17 13.9 °C 11.7 °C 1008.4 hPa NW 5 km/h 7.4 km/h 86 % 0 mm
01:22 13.9 °C 11.6 °C 1008.7 hPa NW 1.3 km/h 5.6 km/h 86 % 0 mm
01:27 13.9 °C 11.6 °C 1008.7 hPa NW 5 km/h 9.3 km/h 86 % 0 mm
01:32 13.9 °C 11.7 °C 1008.4 hPa North 9.5 km/h 13 km/h 86 % 0 mm
01:37 13.9 °C 11.7 °C 1008.7 hPa North 11.1 km/h 18.5 km/h 86 % 0 mm
01:42 14 °C 11.7 °C 1008.7 hPa NW 4 km/h 7.4 km/h 86 % 0 mm
01:47 14 °C 11.7 °C 1008.7 hPa NW 4 km/h 8 km/h 86 % 0 mm
01:52 14 °C 11.7 °C 1008.7 hPa NW 10 km/h 11.1 km/h 86 % 0 mm
01:57 14 °C 11.7 °C 1008.7 hPa NW 5.3 km/h 5.6 km/h 86 % 0 mm
02:02 14 °C 11.7 °C 1008.7 hPa NW 5.3 km/h 11.1 km/h 86 % 0 mm
02:07 14.1 °C 11.8 °C 1008.7 hPa NNW 6 km/h 13 km/h 86 % 0 mm
02:12 14.1 °C 11.8 °C 1008.7 hPa NNW 7.9 km/h 13 km/h 86 % 0 mm
02:17 14.2 °C 11.8 °C 1008.7 hPa NW 8 km/h 11.1 km/h 86 % 0 mm
02:22 14.2 °C 11.8 °C 1008.7 hPa NW 9.8 km/h 13 km/h 86 % 0 mm
02:27 14.2 °C 11.8 °C 1008.7 hPa NW 6.8 km/h 7.4 km/h 86 % 0 mm
02:32 14.2 °C 11.8 °C 1008.7 hPa NW 4 km/h 9.3 km/h 86 % 0 mm
02:37 14.2 °C 11.8 °C 1008.4 hPa North 5.3 km/h 14.8 km/h 86 % 0 mm
02:42 14.1 °C 11.8 °C 1008.4 hPa NNW 8.4 km/h 14.8 km/h 86 % 0 mm
02:47 14.1 °C 11.8 °C 1008.4 hPa NNW 6.1 km/h 9.7 km/h 86 % 0 mm
02:52 14.1 °C 11.8 °C 1008.4 hPa North 5.8 km/h 18.5 km/h 86 % 0 mm
02:57 14.2 °C 11.8 °C 1008.4 hPa North 10.9 km/h 18.5 km/h 86 % 0 mm
03:02 14.2 °C 11.8 °C 1008.4 hPa North 9 km/h 14.5 km/h 86 % 0 mm
03:07 14.2 °C 12.1 °C 1008.4 hPa NNW 11.9 km/h 18.5 km/h 87 % 0 mm
03:12 14.2 °C 12.1 °C 1008.4 hPa North 11.4 km/h 18.5 km/h 87 % 0 mm
03:17 14.2 °C 12.1 °C 1008.4 hPa NNW 12.6 km/h 18.5 km/h 87 % 0 mm
03:22 14.2 °C 12.1 °C 1008.4 hPa NNW 11.3 km/h 14.8 km/h 87 % 0 mm
03:27 14.1 °C 12 °C 1008.4 hPa NNW 8.2 km/h 16.7 km/h 87 % 0 mm
03:32 14.1 °C 11.9 °C 1008.4 hPa NNW 9.2 km/h 16.7 km/h 87 % 0 mm
03:37 14.1 °C 11.9 °C 1008.4 hPa NNW 7.6 km/h 16.7 km/h 87 % 0 mm
03:42 14.1 °C 12 °C 1008.4 hPa NNW 9.5 km/h 18.5 km/h 87 % 0 mm
03:47 14.1 °C 12 °C 1008.4 hPa North 7.4 km/h 16.7 km/h 87 % 0 mm
03:52 14.2 °C 12.1 °C 1008.4 hPa NNE 14.5 km/h 14.8 km/h 87 % 0 mm
03:57 14.2 °C 12.1 °C 1008.4 hPa NW 12.7 km/h 22.2 km/h 87 % 0 mm
04:03 14.2 °C 12.1 °C 1008.4 hPa NNW 11.7 km/h 18.5 km/h 87 % 0 mm
04:08 14.2 °C 12.1 °C 1008.4 hPa NNW 8.7 km/h 13 km/h 87 % 0 mm
04:13 14.2 °C 12.1 °C 1008.4 hPa North 7.2 km/h 9.3 km/h 87 % 0 mm
04:18 14.2 °C 12.1 °C 1008.4 hPa North 9 km/h 16.7 km/h 87 % 0 mm
04:23 14.3 °C 12.2 °C 1008.4 hPa North 6 km/h 11.1 km/h 87 % 0 mm
04:28 14.3 °C 12.2 °C 1008.7 hPa North 6.4 km/h 14.5 km/h 87 % 0 mm
04:33 14.3 °C 12.2 °C 1008.7 hPa North 11.9 km/h 14.8 km/h 87 % 0 mm
04:38 14.3 °C 12.2 °C 1008.7 hPa North 10 km/h 16.7 km/h 87 % 0 mm
04:43 14.3 °C 12.3 °C 1008.7 hPa North 8.9 km/h 13 km/h 88 % 0 mm
04:48 14.3 °C 12.3 °C 1008.7 hPa North 6.8 km/h 14.8 km/h 88 % 0 mm
04:53 14.2 °C 12.3 °C 1008.7 hPa North 10.6 km/h 14.8 km/h 88 % 0 mm
04:58 14.3 °C 12.3 °C 1008.7 hPa North 4.5 km/h 8 km/h 88 % 0 mm
05:02 14.3 °C 12.3 °C 1008.7 hPa North 3.5 km/h 11.1 km/h 88 % 0 mm
05:07 14.3 °C 12.3 °C 1008.7 hPa North 9.5 km/h 14.8 km/h 88 % 0 mm
05:12 14.3 °C 12.3 °C 1009 hPa North 3.5 km/h 9.3 km/h 88 % 0 mm
05:17 14.3 °C 12.3 °C 1009 hPa North 5.1 km/h 9.3 km/h 88 % 0 mm
05:22 14.3 °C 12.4 °C 1009 hPa NNW 5.3 km/h 7.4 km/h 88 % 0 mm
05:27 14.4 °C 12.4 °C 1009 hPa NNW 6.3 km/h 14.8 km/h 88 % 0 mm
05:32 14.4 °C 12.3 °C 1009 hPa NNW 6 km/h 11.3 km/h 87 % 0 mm
05:37 14.5 °C 12.3 °C 1009 hPa North 5.5 km/h 9.7 km/h 87 % 0 mm
05:42 14.6 °C 12.4 °C 1009 hPa North 6.1 km/h 9.3 km/h 87 % 0 mm
05:47 14.6 °C 12.4 °C 1009 hPa NNW 3.5 km/h 5.6 km/h 87 % 0 mm
05:52 14.6 °C 12.4 °C 1009 hPa North 6.4 km/h 14.8 km/h 87 % 0 mm
05:57 14.6 °C 12.4 °C 1009.4 hPa North 2.3 km/h 7.4 km/h 87 % 0 mm
06:02 14.6 °C 12.4 °C 1009.4 hPa North 2.9 km/h 5.6 km/h 87 % 0 mm
06:07 14.6 °C 12.4 °C 1009.4 hPa North 3.9 km/h 4.8 km/h 87 % 0 mm
06:12 14.6 °C 12.4 °C 1009.4 hPa North 2.9 km/h 4.8 km/h 87 % 0 mm
06:17 14.6 °C 12.4 °C 1009.4 hPa North 2.1 km/h 3.7 km/h 87 % 0 mm
06:22 14.6 °C 12.4 °C 1009.4 hPa North 1.8 km/h 7.4 km/h 87 % 0 mm
06:27 14.6 °C 12.4 °C 1009.4 hPa North 0.3 km/h 1.9 km/h 87 % 0 mm
06:33 14.6 °C 12.4 °C 1009.7 hPa North 0.3 km/h 1.9 km/h 87 % 0 mm
06:38 14.6 °C 12.3 °C 1009.7 hPa North 1.4 km/h 1.9 km/h 86 % 0 mm
06:43 14.6 °C 12.3 °C 1009.7 hPa North 2.1 km/h 2.1 km/h 86 % 0 mm
06:48 14.6 °C 12.3 °C 1009.7 hPa North 0.6 km/h 1.9 km/h 86 % 0 mm
06:53 14.6 °C 12.3 °C 1009.7 hPa North 0.2 km/h 1.9 km/h 86 % 0 mm
06:58 14.6 °C 12.3 °C 1010 hPa NW 1.4 km/h 5.6 km/h 86 % 0 mm
07:03 14.7 °C 12.3 °C 1010 hPa SSE 2.6 km/h 5.6 km/h 86 % 0 mm
07:35 14.9 °C 12.6 °C 1010 hPa SSE 2.4 km/h 5.6 km/h 86 % 0 mm
07:46 15 °C 12.3 °C 1010.4 hPa ENE 5.6 km/h 6.4 km/h 84 % 0 mm
07:51 15.1 °C 12.4 °C 1010.4 hPa ENE 1.3 km/h 3.7 km/h 84 % 0 mm
07:56 15.1 °C 12.4 °C 1010.4 hPa ENE 6.6 km/h 7.4 km/h 84 % 0 mm
08:01 15.2 °C 12.6 °C 1010.7 hPa ENE 1.8 km/h 6.4 km/h 84 % 0 mm
08:06 15.3 °C 12.7 °C 1010.7 hPa NW 3.4 km/h 5.6 km/h 84 % 0 mm
08:11 15.4 °C 12.6 °C 1010.7 hPa NW 4.2 km/h 5.6 km/h 83 % 0 mm
08:16 15.5 °C 12.6 °C 1010.7 hPa NW 1.9 km/h 3.7 km/h 83 % 0 mm
08:21 15.5 °C 12.6 °C 1011.1 hPa NW 1.8 km/h 5.6 km/h 83 % 0 mm
08:26 15.5 °C 12.6 °C 1011.1 hPa NW 6.6 km/h 9.3 km/h 83 % 0 mm
08:31 15.4 °C 12.6 °C 1011.1 hPa NW 0.3 km/h 1.9 km/h 83 % 0 mm
08:36 15.6 °C 12.5 °C 1011.1 hPa NW 6.6 km/h 9.3 km/h 82 % 0 mm
08:41 15.7 °C 12.7 °C 1011.1 hPa NW 3.7 km/h 5.6 km/h 82 % 0 mm
08:46 15.9 °C 12.6 °C 1011.4 hPa WNW 4.2 km/h 9.3 km/h 81 % 0 mm
08:51 16.1 °C 12.8 °C 1011.4 hPa WNW 3.2 km/h 6.4 km/h 81 % 0 mm
08:56 16.2 °C 12.8 °C 1011.4 hPa West 13.5 km/h 18.5 km/h 80 % 0 mm
09:01 16.4 °C 12.8 °C 1011.4 hPa West 6.1 km/h 9.3 km/h 79 % 0 mm
09:06 16.6 °C 12.8 °C 1011.4 hPa West 8.7 km/h 11.1 km/h 78 % 0 mm
09:11 16.7 °C 12.9 °C 1011.4 hPa West 7.1 km/h 11.1 km/h 78 % 0 mm
09:16 16.9 °C 13.1 °C 1011.4 hPa West 5.3 km/h 7.4 km/h 78 % 0 mm
09:21 17.1 °C 13 °C 1011.7 hPa West 9.8 km/h 13 km/h 77 % 0 mm
09:26 17.1 °C 12.8 °C 1011.7 hPa WNW 13.4 km/h 18.5 km/h 76 % 0 mm
09:31 17.1 °C 12.8 °C 1011.7 hPa West 10.1 km/h 16.1 km/h 76 % 0 mm
09:36 16.9 °C 12.7 °C 1011.7 hPa North 6.4 km/h 11.1 km/h 76 % 0 mm
09:41 17 °C 12.9 °C 1011.7 hPa West 5.1 km/h 11.3 km/h 77 % 0 mm
09:46 17 °C 12.9 °C 1012.1 hPa WSW 15.4 km/h 18.5 km/h 77 % 0 mm
09:51 17 °C 12.7 °C 1012.1 hPa SW 6.8 km/h 9.7 km/h 76 % 0 mm
09:56 16.9 °C 12.5 °C 1012.1 hPa North 10.1 km/h 14.8 km/h 75 % 0 mm
10:01 16.9 °C 12.5 °C 1012.1 hPa West 17.7 km/h 25.9 km/h 75 % 0 mm
10:06 17.1 °C 12.4 °C 1012.1 hPa WSW 16.9 km/h 31.5 km/h 74 % 0 mm
10:11 17.4 °C 12.7 °C 1012.1 hPa North 20.1 km/h 31.5 km/h 74 % 0 mm
10:16 17.4 °C 12.8 °C 1012.1 hPa West 15.3 km/h 20.4 km/h 74 % 0 mm
10:21 17.6 °C 12.9 °C 1012.1 hPa West 9.2 km/h 14.8 km/h 74 % 0 mm
10:26 17.6 °C 12.7 °C 1012.1 hPa West 6.3 km/h 18.5 km/h 73 % 0 mm
10:31 17.6 °C 12.7 °C 1012.1 hPa North 11.3 km/h 20.4 km/h 73 % 0 mm
10:36 17.5 °C 12.8 °C 1012.1 hPa SW 13.4 km/h 22.2 km/h 74 % 0 mm
10:41 17.4 °C 12.7 °C 1012.4 hPa WSW 8.7 km/h 14.5 km/h 74 % 0 mm
10:46 17.3 °C 12.8 °C 1012.4 hPa SW 6.1 km/h 13 km/h 75 % 0 mm
10:51 17.3 °C 12.8 °C 1012.4 hPa West 13.7 km/h 18.5 km/h 75 % 0 mm
10:56 17.2 °C 12.7 °C 1012.4 hPa West 11.1 km/h 16.7 km/h 75 % 0 mm
11:01 17.4 °C 13.2 °C 1012.4 hPa West 7.7 km/h 13 km/h 76 % 0 mm
11:06 17.7 °C 13.2 °C 1012.4 hPa WSW 18 km/h 24.1 km/h 75 % 0 mm
11:11 18.1 °C 13 °C 1012.4 hPa WSW 23 km/h 29.6 km/h 72 % 0 mm
11:16 18.2 °C 13.1 °C 1012.4 hPa West 17.2 km/h 30.6 km/h 72 % 0 mm
11:21 18.2 °C 12.8 °C 1012.4 hPa West 17.4 km/h 24.1 km/h 71 % 0 mm
11:26 18 °C 12.9 °C 1012.4 hPa West 14.3 km/h 20.4 km/h 72 % 0 mm
11:31 18.4 °C 13.3 °C 1012.4 hPa West 12.4 km/h 17.7 km/h 72 % 0 mm
11:36 18.9 °C 13.1 °C 1012.4 hPa North 21.1 km/h 27.8 km/h 69 % 0 mm
11:41 18.7 °C 12.7 °C 1012.4 hPa WSW 20.6 km/h 31.5 km/h 68 % 0 mm
11:46 18.4 °C 12.6 °C 1012.4 hPa SW 17.4 km/h 25.9 km/h 69 % 0 mm
11:51 18.5 °C 13.2 °C 1012.4 hPa SW 17.7 km/h 25.9 km/h 71 % 0 mm
11:56 18.5 °C 12.9 °C 1012.8 hPa WSW 15.1 km/h 25.9 km/h 70 % 0 mm
12:01 18.2 °C 12.8 °C 1012.8 hPa WSW 21.6 km/h 29.6 km/h 71 % 0 mm
12:06 18.2 °C 13.3 °C 1012.4 hPa WSW 13.4 km/h 31.5 km/h 73 % 0 mm
12:11 18.5 °C 12.9 °C 1012.8 hPa SSW 18.2 km/h 25.9 km/h 70 % 0 mm
12:16 18.6 °C 12.8 °C 1012.8 hPa SW 22.7 km/h 38.9 km/h 69 % 0 mm
12:21 18.4 °C 13.1 °C 1012.4 hPa West 18.7 km/h 27.8 km/h 71 % 0 mm
12:26 18.4 °C 13.1 °C 1012.8 hPa SSW 17.1 km/h 24.1 km/h 71 % 0 mm
12:31 18.3 °C 12.8 °C 1012.8 hPa SW 20.8 km/h 31.5 km/h 70 % 0 mm
12:36 18.2 °C 13.1 °C 1012.8 hPa SW 19.5 km/h 29.6 km/h 72 % 0 mm
12:41 18.1 °C 13.3 °C 1012.8 hPa SW 15 km/h 22.2 km/h 74 % 0 mm
12:46 17.9 °C 13.8 °C 1012.8 hPa WSW 13 km/h 22.2 km/h 77 % 0 mm
12:51 18.3 °C 13.8 °C 1012.8 hPa WSW 12.2 km/h 16.1 km/h 75 % 0 mm
12:56 18.5 °C 13.6 °C 1012.8 hPa SSW 9 km/h 18.5 km/h 73 % 0 mm
13:01 18 °C 13.3 °C 1012.8 hPa WSW 13.7 km/h 25.9 km/h 74 % 0 mm
13:06 18.2 °C 13.4 °C 1012.8 hPa North 15.4 km/h 29.6 km/h 74 % 0 mm
13:11 18.2 °C 13.9 °C 1013.1 hPa North 6.6 km/h 11.1 km/h 76 % 0 mm
13:16 18.2 °C 14.3 °C 1013.1 hPa SW 9.7 km/h 14.8 km/h 78 % 0 mm
13:21 18.1 °C 13.4 °C 1013.1 hPa SW 16.7 km/h 24.1 km/h 74 % 0 mm
13:26 17.8 °C 13.3 °C 1013.1 hPa North 14.2 km/h 25.7 km/h 75 % 0 mm
13:31 17.5 °C 13.2 °C 1013.1 hPa SSW 15.1 km/h 18.5 km/h 76 % 0 mm
13:36 17.3 °C 13.4 °C 1013.1 hPa South 12.2 km/h 16.7 km/h 78 % 0 mm
13:41 17.1 °C 13.6 °C 1013.1 hPa SSW 14.6 km/h 24.1 km/h 80 % 0 mm
13:46 17.4 °C 13.8 °C 1013.1 hPa SW 10.8 km/h 12.9 km/h 79 % 0 mm
13:51 17.8 °C 13.3 °C 1013.1 hPa SSW 16.7 km/h 19.3 km/h 75 % 0 mm
13:56 17.8 °C 13.1 °C 1013.1 hPa WSW 20.6 km/h 33.3 km/h 74 % 0 mm
14:01 17.8 °C 12.7 °C 1013.1 hPa SW 12.9 km/h 24.1 km/h 72 % 0 mm
14:06 18.2 °C 13.2 °C 1013.1 hPa SSW 24.6 km/h 33.3 km/h 73 % 0 mm
14:11 16.8 °C 12.8 °C 1013.4 hPa SSW 8.7 km/h 20.4 km/h 77 % 0 mm
14:16 16.8 °C 13.2 °C 1013.1 hPa SSW 14.5 km/h 14.8 km/h 79 % 0 mm
14:21 16.8 °C 13 °C 1013.4 hPa SSW 21.1 km/h 29.6 km/h 78 % 0 mm
14:26 16.6 °C 12.9 °C 1013.4 hPa SW 19 km/h 27.8 km/h 79 % 0 mm
14:31 16.6 °C 12.8 °C 1013.4 hPa SSW 9.7 km/h 24.1 km/h 78 % 0 mm
14:36 16.5 °C 12.8 °C 1013.8 hPa SW 16.1 km/h 25.9 km/h 79 % 0 mm
14:41 16 °C 12.6 °C 1013.8 hPa North 15.8 km/h 20.4 km/h 80 % 0 mm
14:46 16.2 °C 12.9 °C 1013.4 hPa North 10.8 km/h 19.3 km/h 81 % 0 mm
14:51 16.5 °C 12.4 °C 1013.4 hPa SSW 11.6 km/h 22.2 km/h 77 % 0 mm
14:56 16.8 °C 12.5 °C 1013.4 hPa SSW 11.7 km/h 18.5 km/h 76 % 0 mm
15:01 17.1 °C 12.4 °C 1013.8 hPa SW 20.6 km/h 27.4 km/h 74 % 0 mm
15:05 17.2 °C 12.6 °C 1013.4 hPa SW 18.8 km/h 27.8 km/h 74 % 0 mm
15:10 17.4 °C 12.5 °C 1013.8 hPa SW 14.3 km/h 18.5 km/h 73 % 0 mm
15:15 17.4 °C 12.1 °C 1013.8 hPa South 19 km/h 27.8 km/h 71 % 0 mm
15:20 17.1 °C 12.4 °C 1013.8 hPa West 13.8 km/h 24.1 km/h 74 % 0 mm
15:25 17.1 °C 12 °C 1013.8 hPa SW 16.7 km/h 25.7 km/h 72 % 0 mm
15:30 17.1 °C 12 °C 1013.8 hPa SSW 16.9 km/h 25.9 km/h 72 % 0 mm
15:35 17.3 °C 12.2 °C 1013.8 hPa SSW 24.6 km/h 31.5 km/h 72 % 0 mm
15:40 16.9 °C 11.8 °C 1014.1 hPa SW 14.3 km/h 20.4 km/h 72 % 0 mm
15:45 16.6 °C 11.3 °C 1014.1 hPa SW 17.1 km/h 24.1 km/h 71 % 0 mm
15:50 16.4 °C 11.6 °C 1014.1 hPa SSW 22.4 km/h 29.6 km/h 73 % 0 mm
15:55 16.2 °C 11.6 °C 1014.4 hPa South 19.8 km/h 29.6 km/h 74 % 0 mm
16:00 15.7 °C 11.5 °C 1014.4 hPa SSW 9.2 km/h 18.5 km/h 76 % 0 mm
16:05 15.6 °C 11.8 °C 1014.4 hPa SSW 8.5 km/h 14.8 km/h 78 % 0 mm
16:10 15.7 °C 11.8 °C 1014.4 hPa SSW 6.1 km/h 14.5 km/h 78 % 0 mm
16:15 15.7 °C 11.8 °C 1014.8 hPa SSW 14.6 km/h 20.4 km/h 78 % 0 mm
16:20 15.4 °C 11.4 °C 1014.8 hPa SSW 19.6 km/h 25.9 km/h 77 % 0 mm
16:25 15.3 °C 11.5 °C 1014.8 hPa SW 12.6 km/h 20.4 km/h 78 % 0 mm
16:30 15.5 °C 11.5 °C 1014.8 hPa SSW 16.7 km/h 20.4 km/h 77 % 0 mm
16:35 15.4 °C 11.4 °C 1014.8 hPa SSW 15.6 km/h 20.9 km/h 77 % 0 mm
16:40 15.3 °C 11.3 °C 1014.8 hPa SSW 12.7 km/h 18.5 km/h 77 % 0 mm
16:45 15.3 °C 11.1 °C 1015.1 hPa SW 18.3 km/h 24.1 km/h 76 % 0 mm
16:50 15.3 °C 11.1 °C 1015.1 hPa SW 13 km/h 22.5 km/h 76 % 0 mm
16:55 15.4 °C 11.2 °C 1015.1 hPa SSW 15.8 km/h 22.2 km/h 76 % 0 mm
17:00 15.2 °C 11 °C 1015.5 hPa SSW 18 km/h 27.8 km/h 76 % 0 mm
17:05 14.9 °C 10.7 °C 1015.5 hPa North 15.9 km/h 27.8 km/h 76 % 0 mm
17:10 14.9 °C 10.7 °C 1015.5 hPa South 9.3 km/h 13 km/h 76 % 0 mm
17:15 14.9 °C 10.9 °C 1015.5 hPa SSW 9 km/h 14.8 km/h 77 % 0 mm
17:20 14.7 °C 10.7 °C 1015.8 hPa South 14.8 km/h 25.9 km/h 77 % 0 mm
17:25 14.3 °C 10.6 °C 1015.8 hPa South 5 km/h 7.4 km/h 78 % 0 mm
17:30 14.2 °C 10.4 °C 1016.1 hPa South 15 km/h 24.1 km/h 78 % 0 mm
17:35 13.9 °C 10 °C 1016.1 hPa SSW 18.7 km/h 25.9 km/h 77 % 0 mm
17:40 13.8 °C 10 °C 1016.1 hPa South 13 km/h 24.1 km/h 78 % 0 mm
17:45 13.6 °C 9.8 °C 1016.5 hPa SSW 17.2 km/h 22.2 km/h 78 % 0 mm
17:50 13.4 °C 9.5 °C 1016.1 hPa South 20.1 km/h 27.8 km/h 77 % 0 mm
17:55 13.3 °C 9.6 °C 1016.5 hPa SSW 9.2 km/h 12.9 km/h 78 % 0 mm
18:00 13.2 °C 9.4 °C 1016.5 hPa SSW 15.8 km/h 20.4 km/h 78 % 0 mm
18:05 13.1 °C 9.3 °C 1016.5 hPa SSW 10.9 km/h 16.7 km/h 78 % 0 mm
18:10 13 °C 9.3 °C 1016.8 hPa SSW 9.2 km/h 13 km/h 78 % 0 mm
18:15 13 °C 9.4 °C 1016.8 hPa South 11.3 km/h 16.7 km/h 79 % 0 mm
18:20 13 °C 9.4 °C 1016.8 hPa SSW 10.3 km/h 14.8 km/h 79 % 0 mm
18:25 12.9 °C 9.2 °C 1016.8 hPa SSW 10.9 km/h 16.7 km/h 78 % 0 mm
18:30 12.9 °C 9 °C 1016.8 hPa SSW 10.1 km/h 16.7 km/h 77 % 0 mm
18:35 12.9 °C 9 °C 1017.2 hPa SSW 10.9 km/h 13 km/h 77 % 0 mm
18:40 12.9 °C 9 °C 1017.2 hPa SSW 5.5 km/h 9.3 km/h 77 % 0 mm
18:45 12.9 °C 8.8 °C 1017.5 hPa SSW 4.3 km/h 9.7 km/h 76 % 0 mm
18:50 12.9 °C 8.8 °C 1017.5 hPa South 8.5 km/h 18.5 km/h 76 % 0 mm
18:55 12.8 °C 8.9 °C 1017.5 hPa South 5.8 km/h 9.3 km/h 77 % 0 mm
19:00 12.8 °C 8.9 °C 1017.5 hPa South 6.9 km/h 13 km/h 77 % 0 mm
19:05 12.8 °C 8.7 °C 1017.5 hPa South 5.8 km/h 11.1 km/h 76 % 0 mm
19:10 12.8 °C 8.7 °C 1017.5 hPa South 10.8 km/h 18.5 km/h 76 % 0 mm
19:15 12.8 °C 8.4 °C 1017.8 hPa South 10.3 km/h 16.7 km/h 75 % 0 mm
19:20 12.8 °C 8.3 °C 1017.8 hPa SSW 7.1 km/h 18.5 km/h 74 % 0 mm
19:25 12.8 °C 8.3 °C 1017.8 hPa South 13.4 km/h 18.5 km/h 74 % 0 mm
19:30 12.8 °C 8.3 °C 1018.2 hPa North 6 km/h 9.3 km/h 74 % 0 mm
19:35 12.7 °C 7.9 °C 1018.2 hPa North 6.6 km/h 16.7 km/h 73 % 0 mm
19:40 12.6 °C 7.7 °C 1018.2 hPa South 9.8 km/h 18.5 km/h 72 % 0 mm
19:45 12.6 °C 7.7 °C 1018.2 hPa SSW 11.1 km/h 18.5 km/h 72 % 0 mm
19:50 12.6 °C 7.7 °C 1018.2 hPa South 8.7 km/h 16.7 km/h 72 % 0 mm
19:55 12.5 °C 7.6 °C 1018.2 hPa North 10.1 km/h 16.7 km/h 72 % 0 mm
20:00 12.4 °C 7.3 °C 1018.2 hPa SSW 10.1 km/h 16.7 km/h 71 % 0 mm
20:05 12.4 °C 7.6 °C 1018.5 hPa South 8.4 km/h 13 km/h 72 % 0 mm
20:10 12.4 °C 7.5 °C 1018.5 hPa South 6 km/h 13 km/h 72 % 0 mm
20:15 12.4 °C 7.5 °C 1018.5 hPa South 7.6 km/h 13 km/h 72 % 0 mm
20:20 12.3 °C 7.4 °C 1018.5 hPa South 8.9 km/h 16.7 km/h 72 % 0 mm
20:25 12.3 °C 7.6 °C 1018.5 hPa South 5.1 km/h 11.1 km/h 73 % 0 mm
20:30 12.2 °C 7.5 °C 1018.5 hPa South 3.4 km/h 9.3 km/h 73 % 0 mm
20:35 12.2 °C 7.7 °C 1018.8 hPa South 6 km/h 9.3 km/h 74 % 0 mm
20:40 12.1 °C 7.8 °C 1018.5 hPa South 8.9 km/h 13 km/h 75 % 0 mm
20:45 12.1 °C 7.8 °C 1018.5 hPa South 8.5 km/h 12.9 km/h 75 % 0 mm
20:50 12.1 °C 7.8 °C 1018.8 hPa South 13 km/h 18.5 km/h 75 % 0 mm
20:55 12 °C 7.9 °C 1018.8 hPa South 7.7 km/h 13 km/h 76 % 0 mm
21:00 11.9 °C 7.8 °C 1018.8 hPa South 9 km/h 16.1 km/h 76 % 0 mm
21:05 11.9 °C 8 °C 1018.8 hPa South 7.1 km/h 13 km/h 77 % 0 mm
21:10 11.8 °C 7.9 °C 1018.8 hPa South 7.1 km/h 12.9 km/h 77 % 0 mm
21:15 11.8 °C 8.1 °C 1018.8 hPa South 5.6 km/h 11.1 km/h 78 % 0 mm
21:20 11.7 °C 8 °C 1019.2 hPa South 6.1 km/h 8 km/h 78 % 0 mm
21:25 11.7 °C 7.9 °C 1019.2 hPa South 10.1 km/h 16.7 km/h 78 % 0 mm
21:30 11.7 °C 7.9 °C 1019.2 hPa South 6.8 km/h 13 km/h 78 % 0 mm
21:35 11.7 °C 7.9 °C 1019.2 hPa South 10.6 km/h 14.8 km/h 78 % 0 mm
21:40 11.7 °C 7.9 °C 1019.2 hPa South 7.1 km/h 9.3 km/h 78 % 0 mm
21:45 11.6 °C 7.7 °C 1019.2 hPa South 9.7 km/h 13 km/h 77 % 0 mm
21:50 11.7 °C 7.8 °C 1019.5 hPa South 7.7 km/h 11.1 km/h 77 % 0 mm
21:55 11.7 °C 7.8 °C 1019.5 hPa South 5 km/h 13 km/h 77 % 0 mm
22:00 11.7 °C 7.6 °C 1019.5 hPa South 6.3 km/h 11.1 km/h 76 % 0 mm
22:05 11.7 °C 7.6 °C 1019.5 hPa South 6.6 km/h 9.3 km/h 76 % 0 mm
22:10 11.7 °C 7.6 °C 1019.5 hPa South 10.3 km/h 13 km/h 76 % 0 mm
22:15 11.6 °C 7.5 °C 1019.5 hPa South 9 km/h 13 km/h 76 % 0 mm
22:20 11.6 °C 7.1 °C 1019.9 hPa South 13.8 km/h 20.4 km/h 74 % 0 mm
22:25 11.7 °C 7.4 °C 1019.9 hPa South 12.4 km/h 24.1 km/h 75 % 0 mm
22:30 11.7 °C 7.4 °C 1019.9 hPa South 12.6 km/h 18.5 km/h 75 % 0 mm
22:35 11.6 °C 7.1 °C 1019.9 hPa South 8.4 km/h 16.7 km/h 74 % 0 mm
22:40 11.6 °C 7.1 °C 1019.9 hPa SSW 15.6 km/h 24.1 km/h 74 % 0 mm
22:45 11.6 °C 7.3 °C 1019.9 hPa South 10.6 km/h 18.5 km/h 75 % 0 mm
22:50 11.6 °C 7.1 °C 1020.2 hPa South 14.3 km/h 20.4 km/h 74 % 0 mm
22:55 11.5 °C 6.8 °C 1020.2 hPa South 11.9 km/h 14.5 km/h 73 % 0 mm
23:00 11.5 °C 6.4 °C 1020.2 hPa South 10.8 km/h 18.5 km/h 71 % 0 mm
23:05 11.4 °C 6.4 °C 1020.2 hPa SSW 10.8 km/h 18.5 km/h 71 % 0 mm
23:10 11.4 °C 6.1 °C 1020.2 hPa South 9.3 km/h 16.7 km/h 70 % 0 mm
23:15 11.3 °C 6.1 °C 1020.2 hPa North 12.2 km/h 18.5 km/h 70 % 0 mm
23:20 11.3 °C 5.8 °C 1020.2 hPa South 18.8 km/h 27.8 km/h 69 % 0 mm
23:25 11.3 °C 5.8 °C 1020.5 hPa SSW 7.1 km/h 16.7 km/h 69 % 0 mm
23:30 11.3 °C 5.8 °C 1020.5 hPa SSW 9.2 km/h 13 km/h 69 % 0 mm
23:35 11.2 °C 5.7 °C 1020.2 hPa SSW 8.7 km/h 13 km/h 69 % 0 mm
23:40 11.2 °C 5.9 °C 1020.2 hPa SSW 7.9 km/h 13 km/h 70 % 0 mm
23:45 11.2 °C 6.1 °C 1020.5 hPa SSW 5.3 km/h 7.4 km/h 71 % 0 mm
23:50 11.1 °C 6.1 °C 1020.5 hPa SSW 5.5 km/h 11.1 km/h 71 % 0 mm
23:55 11.1 °C 5.6 °C 1020.5 hPa SSW 15.4 km/h 22.2 km/h 69 % 0 mm
Ararat Weather
Compliments of Weather Underground - 2.25 mb
Click here to send mail.


ABOUT

Live weather data from Ararat, Victoria, Australia, 3377
Data uploaded from Cumulus every 5 minutes to Weather Underground.
This site then downloads the raw data for formatting and display.
Metric and imperial data can be displayed. Graphs and historical data available.
Includes Sun and Moon times and rain image live from BOM.

Check out Ararat Weather on Facebook, Twitter and Google +

Help support ongoing costs by checking out the ads





Follow @AraratWeather